sensor_id;sensor_type;location;lat;lon;timestamp;P1;durP1;ratioP1;P2;durP2;ratioP2
48241;SDS011;34041;51.812;4.622;2023-05-15T00:00:06;21.45;;;19.25;;
48241;SDS011;34041;51.812;4.622;2023-05-15T00:03:09;22.67;;;20.20;;
48241;SDS011;34041;51.812;4.622;2023-05-15T00:06:11;24.98;;;20.58;;
48241;SDS011;34041;51.812;4.622;2023-05-15T00:09:11;22.95;;;20.10;;
48241;SDS011;34041;51.812;4.622;2023-05-15T00:12:11;22.58;;;20.13;;
48241;SDS011;34041;51.812;4.622;2023-05-15T00:15:12;24.93;;;20.27;;
48241;SDS011;34041;51.812;4.622;2023-05-15T00:18:12;22.13;;;19.17;;
48241;SDS011;34041;51.812;4.622;2023-05-15T00:21:12;21.93;;;19.43;;
48241;SDS011;34041;51.812;4.622;2023-05-15T00:24:12;21.35;;;19.23;;
48241;SDS011;34041;51.812;4.622;2023-05-15T00:27:13;22.92;;;20.48;;
48241;SDS011;34041;51.812;4.622;2023-05-15T00:30:13;28.50;;;21.90;;
48241;SDS011;34041;51.812;4.622;2023-05-15T00:33:13;25.38;;;22.67;;
48241;SDS011;34041;51.812;4.622;2023-05-15T00:36:14;26.85;;;22.35;;
48241;SDS011;34041;51.812;4.622;2023-05-15T00:39:14;26.15;;;22.30;;
48241;SDS011;34041;51.812;4.622;2023-05-15T00:42:14;25.55;;;22.63;;
48241;SDS011;34041;51.812;4.622;2023-05-15T00:45:16;27.08;;;23.15;;
48241;SDS011;34041;51.812;4.622;2023-05-15T00:48:17;26.80;;;24.00;;
48241;SDS011;34041;51.812;4.622;2023-05-15T00:51:18;31.00;;;27.50;;
48241;SDS011;34041;51.812;4.622;2023-05-15T00:54:18;30.48;;;24.20;;
48241;SDS011;34041;51.812;4.622;2023-05-15T00:57:19;29.43;;;24.40;;
48241;SDS011;34041;51.812;4.622;2023-05-15T01:00:20;27.40;;;24.42;;
48241;SDS011;34041;51.812;4.622;2023-05-15T01:03:21;30.63;;;26.20;;
48241;SDS011;34041;51.812;4.622;2023-05-15T01:06:21;30.13;;;26.67;;
48241;SDS011;34041;51.812;4.622;2023-05-15T01:09:24;31.97;;;26.17;;
48241;SDS011;34041;51.812;4.622;2023-05-15T01:12:24;31.45;;;27.00;;
48241;SDS011;34041;51.812;4.622;2023-05-15T01:15:25;36.03;;;26.90;;
48241;SDS011;34041;51.812;4.622;2023-05-15T01:18:26;35.27;;;28.13;;
48241;SDS011;34041;51.812;4.622;2023-05-15T01:27:36;30.33;;;27.00;;
48241;SDS011;34041;51.812;4.622;2023-05-15T01:30:39;35.15;;;27.38;;
48241;SDS011;34041;51.812;4.622;2023-05-15T01:33:42;32.55;;;29.05;;
48241;SDS011;34041;51.812;4.622;2023-05-15T01:36:45;33.55;;;27.90;;
48241;SDS011;34041;51.812;4.622;2023-05-15T01:39:47;32.22;;;28.77;;
48241;SDS011;34041;51.812;4.622;2023-05-15T01:42:55;34.88;;;28.13;;
48241;SDS011;34041;51.812;4.622;2023-05-15T01:45:58;38.40;;;29.20;;
48241;SDS011;34041;51.812;4.622;2023-05-15T01:48:59;36.28;;;27.80;;
48241;SDS011;34041;51.812;4.622;2023-05-15T01:52:22;32.65;;;28.10;;
48241;SDS011;34041;51.812;4.622;2023-05-15T01:55:21;33.03;;;28.90;;
48241;SDS011;34041;51.812;4.622;2023-05-15T01:58:23;34.17;;;28.38;;
48241;SDS011;34041;51.812;4.622;2023-05-15T02:01:25;36.25;;;29.75;;
48241;SDS011;34041;51.812;4.622;2023-05-15T02:04:25;32.75;;;28.83;;
48241;SDS011;34041;51.812;4.622;2023-05-15T02:07:26;33.92;;;29.25;;
48241;SDS011;34041;51.812;4.622;2023-05-15T02:10:26;38.33;;;30.55;;
48241;SDS011;34041;51.812;4.622;2023-05-15T02:13:27;34.78;;;29.65;;
48241;SDS011;34041;51.812;4.622;2023-05-15T02:16:27;34.03;;;29.90;;
48241;SDS011;34041;51.812;4.622;2023-05-15T02:19:28;38.30;;;29.83;;
48241;SDS011;34041;51.812;4.622;2023-05-15T02:22:28;33.88;;;29.52;;
48241;SDS011;34041;51.812;4.622;2023-05-15T02:25:32;35.70;;;28.23;;
48241;SDS011;34041;51.812;4.622;2023-05-15T02:28:37;31.80;;;28.10;;
48241;SDS011;34041;51.812;4.622;2023-05-15T02:35:09;33.80;;;30.00;;
48241;SDS011;34041;51.812;4.622;2023-05-15T02:38:14;30.98;;;27.65;;
48241;SDS011;34041;51.812;4.622;2023-05-15T02:41:15;33.75;;;27.77;;
48241;SDS011;34041;51.812;4.622;2023-05-15T02:44:16;33.70;;;28.30;;
48241;SDS011;34041;51.812;4.622;2023-05-15T02:47:16;34.35;;;27.48;;
48241;SDS011;34041;51.812;4.622;2023-05-15T02:50:17;33.90;;;28.75;;
48241;SDS011;34041;51.812;4.622;2023-05-15T02:53:17;33.88;;;29.10;;
48241;SDS011;34041;51.812;4.622;2023-05-15T02:56:18;34.85;;;29.35;;
48241;SDS011;34041;51.812;4.622;2023-05-15T02:59:18;31.00;;;27.33;;
48241;SDS011;34041;51.812;4.622;2023-05-15T03:02:19;30.38;;;27.25;;
48241;SDS011;34041;51.812;4.622;2023-05-15T03:05:19;33.90;;;29.15;;
48241;SDS011;34041;51.812;4.622;2023-05-15T03:08:20;33.15;;;29.27;;
48241;SDS011;34041;51.812;4.622;2023-05-15T03:11:20;32.15;;;28.35;;
48241;SDS011;34041;51.812;4.622;2023-05-15T03:14:21;32.85;;;27.42;;
48241;SDS011;34041;51.812;4.622;2023-05-15T03:17:21;33.33;;;28.43;;
48241;SDS011;34041;51.812;4.622;2023-05-15T03:20:21;34.63;;;28.57;;
48241;SDS011;34041;51.812;4.622;2023-05-15T03:23:21;31.57;;;27.90;;
48241;SDS011;34041;51.812;4.622;2023-05-15T03:26:21;34.15;;;28.67;;
48241;SDS011;34041;51.812;4.622;2023-05-15T03:29:22;30.90;;;27.63;;
48241;SDS011;34041;51.812;4.622;2023-05-15T03:32:22;34.40;;;29.17;;
48241;SDS011;34041;51.812;4.622;2023-05-15T03:35:22;32.37;;;28.47;;
48241;SDS011;34041;51.812;4.622;2023-05-15T03:38:22;34.20;;;30.02;;
48241;SDS011;34041;51.812;4.622;2023-05-15T03:41:23;36.03;;;29.13;;
48241;SDS011;34041;51.812;4.622;2023-05-15T03:44:24;32.38;;;28.85;;
48241;SDS011;34041;51.812;4.622;2023-05-15T03:47:25;34.07;;;28.83;;
48241;SDS011;34041;51.812;4.622;2023-05-15T03:50:25;34.20;;;30.20;;
48241;SDS011;34041;51.812;4.622;2023-05-15T03:53:25;37.20;;;31.08;;
48241;SDS011;34041;51.812;4.622;2023-05-15T03:56:25;37.75;;;29.98;;
48241;SDS011;34041;51.812;4.622;2023-05-15T03:59:26;30.57;;;27.27;;
48241;SDS011;34041;51.812;4.622;2023-05-15T04:02:26;34.13;;;30.17;;
48241;SDS011;34041;51.812;4.622;2023-05-15T04:05:26;37.97;;;30.55;;
48241;SDS011;34041;51.812;4.622;2023-05-15T04:08:27;37.75;;;30.33;;
48241;SDS011;34041;51.812;4.622;2023-05-15T04:11:27;35.00;;;31.20;;
48241;SDS011;34041;51.812;4.622;2023-05-15T04:14:27;33.90;;;30.13;;
48241;SDS011;34041;51.812;4.622;2023-05-15T04:17:27;33.53;;;30.07;;
48241;SDS011;34041;51.812;4.622;2023-05-15T04:20:29;37.70;;;31.30;;
48241;SDS011;34041;51.812;4.622;2023-05-15T04:23:30;34.88;;;31.20;;
48241;SDS011;34041;51.812;4.622;2023-05-15T04:26:30;34.00;;;30.07;;
48241;SDS011;34041;51.812;4.622;2023-05-15T04:29:30;35.22;;;31.40;;
48241;SDS011;34041;51.812;4.622;2023-05-15T04:32:30;37.25;;;30.48;;
48241;SDS011;34041;51.812;4.622;2023-05-15T04:35:32;33.00;;;28.77;;
48241;SDS011;34041;51.812;4.622;2023-05-15T04:38:32;31.92;;;28.45;;
48241;SDS011;34041;51.812;4.622;2023-05-15T04:41:33;33.90;;;28.23;;
48241;SDS011;34041;51.812;4.622;2023-05-15T04:44:33;29.20;;;25.75;;
48241;SDS011;34041;51.812;4.622;2023-05-15T04:47:34;30.70;;;25.13;;
48241;SDS011;34041;51.812;4.622;2023-05-15T04:50:34;28.45;;;25.60;;
48241;SDS011;34041;51.812;4.622;2023-05-15T04:53:35;27.73;;;24.88;;
48241;SDS011;34041;51.812;4.622;2023-05-15T04:56:36;30.47;;;25.37;;
48241;SDS011;34041;51.812;4.622;2023-05-15T04:59:36;27.48;;;24.35;;
48241;SDS011;34041;51.812;4.622;2023-05-15T05:02:37;28.83;;;25.83;;
48241;SDS011;34041;51.812;4.622;2023-05-15T05:05:37;26.38;;;23.77;;
48241;SDS011;34041;51.812;4.622;2023-05-15T05:08:37;25.90;;;23.30;;
48241;SDS011;34041;51.812;4.622;2023-05-15T05:11:38;28.20;;;25.47;;
48241;SDS011;34041;51.812;4.622;2023-05-15T05:14:38;29.83;;;26.67;;
48241;SDS011;34041;51.812;4.622;2023-05-15T05:17:40;29.65;;;26.50;;
48241;SDS011;34041;51.812;4.622;2023-05-15T05:20:41;28.27;;;25.48;;
48241;SDS011;34041;51.812;4.622;2023-05-15T05:23:41;30.65;;;27.20;;
48241;SDS011;34041;51.812;4.622;2023-05-15T05:26:44;29.23;;;25.57;;
48241;SDS011;34041;51.812;4.622;2023-05-15T05:29:44;29.65;;;25.30;;
48241;SDS011;34041;51.812;4.622;2023-05-15T05:32:45;28.15;;;25.10;;
48241;SDS011;34041;51.812;4.622;2023-05-15T05:35:45;29.42;;;25.52;;
48241;SDS011;34041;51.812;4.622;2023-05-15T05:38:45;28.83;;;25.98;;
48241;SDS011;34041;51.812;4.622;2023-05-15T05:41:46;28.73;;;25.70;;
48241;SDS011;34041;51.812;4.622;2023-05-15T05:44:46;31.87;;;27.17;;
48241;SDS011;34041;51.812;4.622;2023-05-15T05:47:46;33.80;;;26.97;;
48241;SDS011;34041;51.812;4.622;2023-05-15T05:50:46;28.00;;;25.20;;
48241;SDS011;34041;51.812;4.622;2023-05-15T05:53:46;31.00;;;27.77;;
48241;SDS011;34041;51.812;4.622;2023-05-15T05:56:47;27.97;;;25.13;;
48241;SDS011;34041;51.812;4.622;2023-05-15T05:59:47;29.92;;;26.83;;
48241;SDS011;34041;51.812;4.622;2023-05-15T06:02:48;28.55;;;25.60;;
48241;SDS011;34041;51.812;4.622;2023-05-15T06:05:50;30.85;;;27.63;;
48241;SDS011;34041;51.812;4.622;2023-05-15T06:08:51;27.38;;;24.80;;
48241;SDS011;34041;51.812;4.622;2023-05-15T06:11:52;27.70;;;24.80;;
48241;SDS011;34041;51.812;4.622;2023-05-15T06:14:52;27.83;;;24.73;;
48241;SDS011;34041;51.812;4.622;2023-05-15T06:17:52;31.80;;;26.60;;
48241;SDS011;34041;51.812;4.622;2023-05-15T06:20:52;25.37;;;22.63;;
48241;SDS011;34041;51.812;4.622;2023-05-15T06:23:53;28.07;;;25.37;;
48241;SDS011;34041;51.812;4.622;2023-05-15T06:26:53;26.00;;;23.50;;
48241;SDS011;34041;51.812;4.622;2023-05-15T06:29:53;24.63;;;21.43;;
48241;SDS011;34041;51.812;4.622;2023-05-15T06:32:53;24.20;;;21.30;;
48241;SDS011;34041;51.812;4.622;2023-05-15T06:35:54;25.08;;;22.50;;
48241;SDS011;34041;51.812;4.622;2023-05-15T06:38:55;25.35;;;22.80;;
48241;SDS011;34041;51.812;4.622;2023-05-15T06:41:55;23.63;;;21.40;;
48241;SDS011;34041;51.812;4.622;2023-05-15T06:45:00;24.02;;;20.92;;
48241;SDS011;34041;51.812;4.622;2023-05-15T06:48:00;25.58;;;22.35;;
48241;SDS011;34041;51.812;4.622;2023-05-15T06:51:00;23.70;;;21.40;;
48241;SDS011;34041;51.812;4.622;2023-05-15T06:54:01;24.05;;;21.67;;
48241;SDS011;34041;51.812;4.622;2023-05-15T06:57:01;23.33;;;21.13;;
48241;SDS011;34041;51.812;4.622;2023-05-15T07:00:01;24.20;;;21.67;;
48241;SDS011;34041;51.812;4.622;2023-05-15T07:03:01;23.80;;;21.37;;
48241;SDS011;34041;51.812;4.622;2023-05-15T07:06:02;21.40;;;19.20;;
48241;SDS011;34041;51.812;4.622;2023-05-15T07:09:02;21.63;;;19.50;;
48241;SDS011;34041;51.812;4.622;2023-05-15T07:12:03;21.15;;;18.95;;
48241;SDS011;34041;51.812;4.622;2023-05-15T07:15:04;22.95;;;18.70;;
48241;SDS011;34041;51.812;4.622;2023-05-15T07:18:05;20.70;;;18.70;;
48241;SDS011;34041;51.812;4.622;2023-05-15T07:21:05;22.15;;;19.80;;
48241;SDS011;34041;51.812;4.622;2023-05-15T07:24:05;23.90;;;21.53;;
48241;SDS011;34041;51.812;4.622;2023-05-15T07:27:05;22.52;;;20.23;;
48241;SDS011;34041;51.812;4.622;2023-05-15T07:30:06;24.43;;;21.83;;
48241;SDS011;34041;51.812;4.622;2023-05-15T07:33:06;22.73;;;20.42;;
48241;SDS011;34041;51.812;4.622;2023-05-15T07:36:06;23.73;;;21.50;;
48241;SDS011;34041;51.812;4.622;2023-05-15T07:39:07;28.60;;;25.27;;
48241;SDS011;34041;51.812;4.622;2023-05-15T07:42:07;26.17;;;23.47;;
48241;SDS011;34041;51.812;4.622;2023-05-15T07:45:07;26.02;;;23.25;;
48241;SDS011;34041;51.812;4.622;2023-05-15T07:48:18;26.08;;;23.42;;
48241;SDS011;34041;51.812;4.622;2023-05-15T07:51:18;24.17;;;21.42;;
48241;SDS011;34041;51.812;4.622;2023-05-15T07:54:19;29.00;;;21.88;;
48241;SDS011;34041;51.812;4.622;2023-05-15T07:57:19;26.60;;;23.33;;
48241;SDS011;34041;51.812;4.622;2023-05-15T08:00:20;29.77;;;24.03;;
48241;SDS011;34041;51.812;4.622;2023-05-15T08:03:20;22.42;;;20.02;;
48241;SDS011;34041;51.812;4.622;2023-05-15T08:06:21;26.23;;;23.50;;
48241;SDS011;34041;51.812;4.622;2023-05-15T08:09:21;24.83;;;21.90;;
48241;SDS011;34041;51.812;4.622;2023-05-15T08:12:21;31.20;;;24.10;;
48241;SDS011;34041;51.812;4.622;2023-05-15T08:15:22;26.45;;;23.48;;
48241;SDS011;34041;51.812;4.622;2023-05-15T08:18:22;29.98;;;26.67;;
48241;SDS011;34041;51.812;4.622;2023-05-15T08:21:23;28.93;;;25.90;;
48241;SDS011;34041;51.812;4.622;2023-05-15T08:24:23;33.07;;;26.80;;
48241;SDS011;34041;51.812;4.622;2023-05-15T08:27:23;31.27;;;28.05;;
48241;SDS011;34041;51.812;4.622;2023-05-15T08:30:24;34.00;;;29.35;;
48241;SDS011;34041;51.812;4.622;2023-05-15T08:33:25;39.88;;;32.88;;
48241;SDS011;34041;51.812;4.622;2023-05-15T08:36:25;38.70;;;33.17;;
48241;SDS011;34041;51.812;4.622;2023-05-15T08:39:25;37.77;;;33.83;;
48241;SDS011;34041;51.812;4.622;2023-05-15T08:42:34;40.38;;;35.97;;
48241;SDS011;34041;51.812;4.622;2023-05-15T08:45:34;41.25;;;36.97;;
48241;SDS011;34041;51.812;4.622;2023-05-15T08:48:35;39.97;;;35.75;;
48241;SDS011;34041;51.812;4.622;2023-05-15T08:51:35;41.10;;;36.33;;
48241;SDS011;34041;51.812;4.622;2023-05-15T08:54:37;45.45;;;36.75;;
48241;SDS011;34041;51.812;4.622;2023-05-15T08:57:39;45.45;;;35.92;;
48241;SDS011;34041;51.812;4.622;2023-05-15T09:00:39;43.28;;;36.55;;
48241;SDS011;34041;51.812;4.622;2023-05-15T09:03:39;43.07;;;35.80;;
48241;SDS011;34041;51.812;4.622;2023-05-15T09:06:40;40.03;;;34.08;;
48241;SDS011;34041;51.812;4.622;2023-05-15T09:09:41;40.28;;;34.58;;
48241;SDS011;34041;51.812;4.622;2023-05-15T09:12:42;42.20;;;35.47;;
48241;SDS011;34041;51.812;4.622;2023-05-15T09:15:46;39.30;;;34.90;;
48241;SDS011;34041;51.812;4.622;2023-05-15T09:18:49;42.40;;;35.90;;
48241;SDS011;34041;51.812;4.622;2023-05-15T09:21:50;42.63;;;37.20;;
48241;SDS011;34041;51.812;4.622;2023-05-15T09:24:51;41.00;;;35.80;;
48241;SDS011;34041;51.812;4.622;2023-05-15T09:27:52;46.08;;;38.47;;
48241;SDS011;34041;51.812;4.622;2023-05-15T09:30:59;42.10;;;36.13;;
48241;SDS011;34041;51.812;4.622;2023-05-15T09:34:00;45.80;;;37.00;;
48241;SDS011;34041;51.812;4.622;2023-05-15T09:37:02;40.78;;;35.33;;
48241;SDS011;34041;51.812;4.622;2023-05-15T09:40:08;45.10;;;37.83;;
48241;SDS011;34041;51.812;4.622;2023-05-15T09:43:10;44.45;;;35.28;;
48241;SDS011;34041;51.812;4.622;2023-05-15T09:46:11;39.03;;;32.08;;
48241;SDS011;34041;51.812;4.622;2023-05-15T09:49:13;40.85;;;33.85;;
48241;SDS011;34041;51.812;4.622;2023-05-15T09:52:14;42.58;;;34.35;;
48241;SDS011;34041;51.812;4.622;2023-05-15T09:55:15;42.20;;;33.95;;
48241;SDS011;34041;51.812;4.622;2023-05-15T09:58:16;43.03;;;34.05;;
48241;SDS011;34041;51.812;4.622;2023-05-15T10:01:18;44.47;;;35.67;;
48241;SDS011;34041;51.812;4.622;2023-05-15T10:04:18;40.00;;;32.22;;
48241;SDS011;34041;51.812;4.622;2023-05-15T10:07:32;41.58;;;32.88;;
48241;SDS011;34041;51.812;4.622;2023-05-15T10:10:33;39.42;;;31.52;;
48241;SDS011;34041;51.812;4.622;2023-05-15T10:13:33;37.97;;;30.77;;
48241;SDS011;34041;51.812;4.622;2023-05-15T10:16:34;37.78;;;31.35;;
48241;SDS011;34041;51.812;4.622;2023-05-15T10:19:35;33.85;;;29.88;;
48241;SDS011;34041;51.812;4.622;2023-05-15T10:22:39;37.58;;;28.95;;
48241;SDS011;34041;51.812;4.622;2023-05-15T10:25:54;36.25;;;28.65;;
48241;SDS011;34041;51.812;4.622;2023-05-15T10:28:55;37.08;;;27.67;;
48241;SDS011;34041;51.812;4.622;2023-05-15T10:31:55;30.15;;;25.33;;
48241;SDS011;34041;51.812;4.622;2023-05-15T10:34:56;31.50;;;23.60;;
48241;SDS011;34041;51.812;4.622;2023-05-15T10:37:57;30.15;;;24.23;;
48241;SDS011;34041;51.812;4.622;2023-05-15T10:40:57;25.83;;;22.97;;
48241;SDS011;34041;51.812;4.622;2023-05-15T10:43:58;26.63;;;23.13;;
48241;SDS011;34041;51.812;4.622;2023-05-15T10:46:59;31.58;;;24.42;;
48241;SDS011;34041;51.812;4.622;2023-05-15T10:49:59;26.50;;;23.63;;
48241;SDS011;34041;51.812;4.622;2023-05-15T10:53:00;31.60;;;25.48;;
48241;SDS011;34041;51.812;4.622;2023-05-15T10:56:01;28.48;;;24.95;;
48241;SDS011;34041;51.812;4.622;2023-05-15T10:59:08;27.10;;;23.00;;
48241;SDS011;34041;51.812;4.622;2023-05-15T11:02:21;22.73;;;20.38;;
48241;SDS011;34041;51.812;4.622;2023-05-15T11:05:22;23.65;;;21.00;;
48241;SDS011;34041;51.812;4.622;2023-05-15T11:08:23;26.08;;;21.45;;
48241;SDS011;34041;51.812;4.622;2023-05-15T11:18:03;26.08;;;22.65;;
48241;SDS011;34041;51.812;4.622;2023-05-15T11:21:06;23.52;;;20.92;;
48241;SDS011;34041;51.812;4.622;2023-05-15T11:24:07;23.20;;;19.90;;
48241;SDS011;34041;51.812;4.622;2023-05-15T11:27:11;25.83;;;20.80;;
48241;SDS011;34041;51.812;4.622;2023-05-15T11:30:18;21.33;;;18.95;;
48241;SDS011;34041;51.812;4.622;2023-05-15T11:33:22;22.35;;;19.75;;
48241;SDS011;34041;51.812;4.622;2023-05-15T11:36:22;26.80;;;21.17;;
48241;SDS011;34041;51.812;4.622;2023-05-15T11:39:23;19.67;;;16.80;;
48241;SDS011;34041;51.812;4.622;2023-05-15T11:42:24;17.92;;;15.73;;
48241;SDS011;34041;51.812;4.622;2023-05-15T11:45:24;17.70;;;14.77;;
48241;SDS011;34041;51.812;4.622;2023-05-15T11:48:25;12.63;;;9.83;;
48241;SDS011;34041;51.812;4.622;2023-05-15T11:51:29;13.73;;;8.27;;
48241;SDS011;34041;51.812;4.622;2023-05-15T11:54:29;10.45;;;6.60;;
48241;SDS011;34041;51.812;4.622;2023-05-15T11:57:29;6.20;;;5.55;;
48241;SDS011;34041;51.812;4.622;2023-05-15T12:00:30;5.65;;;4.68;;
48241;SDS011;34041;51.812;4.622;2023-05-15T12:03:33;13.55;;;7.72;;
48241;SDS011;34041;51.812;4.622;2023-05-15T12:06:35;8.35;;;5.78;;
48241;SDS011;34041;51.812;4.622;2023-05-15T12:09:35;10.25;;;6.90;;
48241;SDS011;34041;51.812;4.622;2023-05-15T12:12:37;12.13;;;6.97;;
48241;SDS011;34041;51.812;4.622;2023-05-15T12:15:38;11.10;;;7.00;;
48241;SDS011;34041;51.812;4.622;2023-05-15T12:18:39;8.65;;;5.80;;
48241;SDS011;34041;51.812;4.622;2023-05-15T12:21:44;10.17;;;5.97;;
48241;SDS011;34041;51.812;4.622;2023-05-15T12:24:45;7.57;;;4.93;;
48241;SDS011;34041;51.812;4.622;2023-05-15T12:27:45;8.60;;;4.13;;
48241;SDS011;34041;51.812;4.622;2023-05-15T12:30:45;9.75;;;4.80;;
48241;SDS011;34041;51.812;4.622;2023-05-15T12:33:46;7.65;;;5.03;;
48241;SDS011;34041;51.812;4.622;2023-05-15T12:36:46;11.45;;;6.20;;
48241;SDS011;34041;51.812;4.622;2023-05-15T12:39:53;11.95;;;4.68;;
48241;SDS011;34041;51.812;4.622;2023-05-15T12:42:53;14.18;;;5.40;;
48241;SDS011;34041;51.812;4.622;2023-05-15T12:45:54;20.02;;;5.68;;
48241;SDS011;34041;51.812;4.622;2023-05-15T12:48:58;10.88;;;4.40;;
48241;SDS011;34041;51.812;4.622;2023-05-15T12:52:06;11.82;;;4.18;;
48241;SDS011;34041;51.812;4.622;2023-05-15T12:55:06;9.30;;;4.15;;
48241;SDS011;34041;51.812;4.622;2023-05-15T12:58:08;12.63;;;4.03;;
48241;SDS011;34041;51.812;4.622;2023-05-15T13:01:08;9.98;;;3.97;;
48241;SDS011;34041;51.812;4.622;2023-05-15T13:04:08;9.88;;;3.95;;
48241;SDS011;34041;51.812;4.622;2023-05-15T13:07:08;7.82;;;3.05;;
48241;SDS011;34041;51.812;4.622;2023-05-15T13:10:09;8.13;;;3.38;;
48241;SDS011;34041;51.812;4.622;2023-05-15T13:13:10;9.77;;;3.45;;
48241;SDS011;34041;51.812;4.622;2023-05-15T13:16:23;8.65;;;3.08;;
48241;SDS011;34041;51.812;4.622;2023-05-15T13:19:24;15.10;;;3.80;;
48241;SDS011;34041;51.812;4.622;2023-05-15T13:22:24;10.80;;;4.30;;
48241;SDS011;34041;51.812;4.622;2023-05-15T13:25:25;15.13;;;4.00;;
48241;SDS011;34041;51.812;4.622;2023-05-15T13:28:25;11.82;;;3.15;;
48241;SDS011;34041;51.812;4.622;2023-05-15T13:31:25;9.80;;;3.33;;
48241;SDS011;34041;51.812;4.622;2023-05-15T13:34:25;8.88;;;3.40;;
48241;SDS011;34041;51.812;4.622;2023-05-15T13:37:26;6.23;;;3.03;;
48241;SDS011;34041;51.812;4.622;2023-05-15T13:40:26;9.57;;;3.75;;
48241;SDS011;34041;51.812;4.622;2023-05-15T13:43:26;10.73;;;3.58;;
48241;SDS011;34041;51.812;4.622;2023-05-15T13:46:27;11.77;;;3.70;;
48241;SDS011;34041;51.812;4.622;2023-05-15T13:49:27;7.88;;;2.70;;
48241;SDS011;34041;51.812;4.622;2023-05-15T13:52:27;8.63;;;2.57;;
48241;SDS011;34041;51.812;4.622;2023-05-15T13:55:27;9.80;;;3.03;;
48241;SDS011;34041;51.812;4.622;2023-05-15T13:58:28;5.30;;;2.22;;
48241;SDS011;34041;51.812;4.622;2023-05-15T14:01:28;9.15;;;3.10;;
48241;SDS011;34041;51.812;4.622;2023-05-15T14:04:28;4.87;;;2.20;;
48241;SDS011;34041;51.812;4.622;2023-05-15T14:07:29;6.53;;;2.77;;
48241;SDS011;34041;51.812;4.622;2023-05-15T14:10:29;8.23;;;2.33;;
48241;SDS011;34041;51.812;4.622;2023-05-15T14:13:29;6.65;;;2.83;;
48241;SDS011;34041;51.812;4.622;2023-05-15T14:16:30;8.15;;;2.30;;
48241;SDS011;34041;51.812;4.622;2023-05-15T14:19:30;7.82;;;2.97;;
48241;SDS011;34041;51.812;4.622;2023-05-15T14:22:31;6.80;;;3.00;;
48241;SDS011;34041;51.812;4.622;2023-05-15T14:25:31;5.18;;;2.92;;
48241;SDS011;34041;51.812;4.622;2023-05-15T14:28:31;10.73;;;3.00;;
48241;SDS011;34041;51.812;4.622;2023-05-15T14:31:32;9.02;;;2.53;;
48241;SDS011;34041;51.812;4.622;2023-05-15T14:34:32;4.88;;;2.83;;
48241;SDS011;34041;51.812;4.622;2023-05-15T14:37:33;5.47;;;2.75;;
48241;SDS011;34041;51.812;4.622;2023-05-15T14:40:33;5.90;;;2.47;;
48241;SDS011;34041;51.812;4.622;2023-05-15T14:43:33;5.00;;;2.33;;
48241;SDS011;34041;51.812;4.622;2023-05-15T14:46:33;6.67;;;2.57;;
48241;SDS011;34041;51.812;4.622;2023-05-15T14:49:35;6.43;;;3.45;;
48241;SDS011;34041;51.812;4.622;2023-05-15T14:52:35;6.78;;;2.50;;
48241;SDS011;34041;51.812;4.622;2023-05-15T14:55:36;6.27;;;2.60;;
48241;SDS011;34041;51.812;4.622;2023-05-15T14:58:36;8.60;;;2.67;;
48241;SDS011;34041;51.812;4.622;2023-05-15T15:01:36;5.47;;;2.58;;
48241;SDS011;34041;51.812;4.622;2023-05-15T15:04:36;7.50;;;3.03;;
48241;SDS011;34041;51.812;4.622;2023-05-15T15:10:56;6.85;;;2.30;;
48241;SDS011;34041;51.812;4.622;2023-05-15T15:13:56;6.68;;;2.78;;
48241;SDS011;34041;51.812;4.622;2023-05-15T15:16:56;6.75;;;2.85;;
48241;SDS011;34041;51.812;4.622;2023-05-15T15:19:56;9.07;;;3.43;;
48241;SDS011;34041;51.812;4.622;2023-05-15T15:22:57;5.75;;;2.55;;
48241;SDS011;34041;51.812;4.622;2023-05-15T15:25:57;9.30;;;2.60;;
48241;SDS011;34041;51.812;4.622;2023-05-15T15:28:57;8.47;;;2.63;;
48241;SDS011;34041;51.812;4.622;2023-05-15T15:31:59;8.43;;;2.97;;
48241;SDS011;34041;51.812;4.622;2023-05-15T15:35:00;10.37;;;3.47;;
48241;SDS011;34041;51.812;4.622;2023-05-15T15:38:00;10.10;;;3.80;;
48241;SDS011;34041;51.812;4.622;2023-05-15T15:41:01;6.68;;;3.03;;
48241;SDS011;34041;51.812;4.622;2023-05-15T15:44:01;8.15;;;2.72;;
48241;SDS011;34041;51.812;4.622;2023-05-15T15:47:02;9.48;;;2.47;;
48241;SDS011;34041;51.812;4.622;2023-05-15T15:50:02;6.40;;;2.78;;
48241;SDS011;34041;51.812;4.622;2023-05-15T15:53:02;7.90;;;3.08;;
48241;SDS011;34041;51.812;4.622;2023-05-15T15:56:03;9.67;;;3.03;;
48241;SDS011;34041;51.812;4.622;2023-05-15T15:59:03;5.53;;;2.20;;
48241;SDS011;34041;51.812;4.622;2023-05-15T16:02:03;6.60;;;3.03;;
48241;SDS011;34041;51.812;4.622;2023-05-15T16:05:04;9.77;;;2.58;;
48241;SDS011;34041;51.812;4.622;2023-05-15T16:08:04;6.57;;;2.00;;
48241;SDS011;34041;51.812;4.622;2023-05-15T16:11:05;9.00;;;2.80;;
48241;SDS011;34041;51.812;4.622;2023-05-15T16:14:05;23.13;;;3.30;;
48241;SDS011;34041;51.812;4.622;2023-05-15T16:17:05;11.10;;;2.70;;
48241;SDS011;34041;51.812;4.622;2023-05-15T16:20:05;10.15;;;2.60;;
48241;SDS011;34041;51.812;4.622;2023-05-15T16:23:06;6.50;;;2.65;;
48241;SDS011;34041;51.812;4.622;2023-05-15T16:26:08;7.75;;;1.98;;
48241;SDS011;34041;51.812;4.622;2023-05-15T16:29:09;5.35;;;2.40;;
48241;SDS011;34041;51.812;4.622;2023-05-15T16:32:10;7.47;;;2.40;;
48241;SDS011;34041;51.812;4.622;2023-05-15T16:35:10;11.55;;;2.92;;
48241;SDS011;34041;51.812;4.622;2023-05-15T16:38:11;12.63;;;3.80;;
48241;SDS011;34041;51.812;4.622;2023-05-15T16:41:11;4.88;;;2.45;;
48241;SDS011;34041;51.812;4.622;2023-05-15T16:44:11;10.63;;;2.70;;
48241;SDS011;34041;51.812;4.622;2023-05-15T16:47:11;11.17;;;2.60;;
48241;SDS011;34041;51.812;4.622;2023-05-15T16:50:12;9.73;;;2.17;;
48241;SDS011;34041;51.812;4.622;2023-05-15T16:53:12;11.53;;;3.00;;
48241;SDS011;34041;51.812;4.622;2023-05-15T16:56:13;9.90;;;2.20;;
48241;SDS011;34041;51.812;4.622;2023-05-15T16:59:14;11.43;;;2.95;;
48241;SDS011;34041;51.812;4.622;2023-05-15T17:02:14;9.35;;;2.92;;
48241;SDS011;34041;51.812;4.622;2023-05-15T17:05:15;11.57;;;2.60;;
48241;SDS011;34041;51.812;4.622;2023-05-15T17:08:15;5.30;;;2.78;;
48241;SDS011;34041;51.812;4.622;2023-05-15T17:11:15;9.23;;;3.00;;
48241;SDS011;34041;51.812;4.622;2023-05-15T17:14:15;11.83;;;2.90;;
48241;SDS011;34041;51.812;4.622;2023-05-15T17:17:16;8.80;;;2.90;;
48241;SDS011;34041;51.812;4.622;2023-05-15T17:20:16;11.07;;;2.80;;
48241;SDS011;34041;51.812;4.622;2023-05-15T17:23:16;14.27;;;3.33;;
48241;SDS011;34041;51.812;4.622;2023-05-15T17:26:16;9.87;;;2.43;;
48241;SDS011;34041;51.812;4.622;2023-05-15T17:29:17;7.87;;;2.60;;
48241;SDS011;34041;51.812;4.622;2023-05-15T17:32:18;15.35;;;3.00;;
48241;SDS011;34041;51.812;4.622;2023-05-15T17:35:19;12.55;;;4.00;;
48241;SDS011;34041;51.812;4.622;2023-05-15T17:38:19;13.05;;;3.00;;
48241;SDS011;34041;51.812;4.622;2023-05-15T17:41:20;9.20;;;3.00;;
48241;SDS011;34041;51.812;4.622;2023-05-15T17:44:21;14.85;;;3.35;;
48241;SDS011;34041;51.812;4.622;2023-05-15T17:47:22;7.90;;;3.17;;
48241;SDS011;34041;51.812;4.622;2023-05-15T17:50:22;11.57;;;2.83;;
48241;SDS011;34041;51.812;4.622;2023-05-15T17:53:22;9.10;;;2.80;;
48241;SDS011;34041;51.812;4.622;2023-05-15T17:56:23;16.30;;;2.70;;
48241;SDS011;34041;51.812;4.622;2023-05-15T17:59:24;6.07;;;2.38;;
48241;SDS011;34041;51.812;4.622;2023-05-15T18:02:24;10.13;;;2.77;;
48241;SDS011;34041;51.812;4.622;2023-05-15T18:05:24;9.57;;;2.83;;